sensor_id;sensor_type;location;lat;lon;timestamp;P1;durP1;ratioP1;P2;durP2;ratioP2
60205;SDS011;46072;51.554;6.846;2023-09-12T00:02:07;44.92;;;23.08;;
60205;SDS011;46072;51.554;6.846;2023-09-12T00:04:35;45.95;;;22.90;;
60205;SDS011;46072;51.554;6.846;2023-09-12T00:07:02;44.10;;;24.23;;
60205;SDS011;46072;51.554;6.846;2023-09-12T00:09:29;39.88;;;22.38;;
60205;SDS011;46072;51.554;6.846;2023-09-12T00:11:55;46.35;;;24.45;;
60205;SDS011;46072;51.554;6.846;2023-09-12T00:14:21;45.67;;;21.80;;
60205;SDS011;46072;51.554;6.846;2023-09-12T00:16:48;38.20;;;22.13;;
60205;SDS011;46072;51.554;6.846;2023-09-12T00:19:14;36.88;;;20.85;;
60205;SDS011;46072;51.554;6.846;2023-09-12T00:21:40;38.33;;;20.35;;
60205;SDS011;46072;51.554;6.846;2023-09-12T00:24:07;43.75;;;21.33;;
60205;SDS011;46072;51.554;6.846;2023-09-12T00:26:33;41.67;;;21.85;;
60205;SDS011;46072;51.554;6.846;2023-09-12T00:29:00;43.13;;;23.23;;
60205;SDS011;46072;51.554;6.846;2023-09-12T00:31:26;45.90;;;25.73;;
60205;SDS011;46072;51.554;6.846;2023-09-12T00:33:52;49.20;;;26.95;;
60205;SDS011;46072;51.554;6.846;2023-09-12T00:36:19;49.47;;;27.70;;
60205;SDS011;46072;51.554;6.846;2023-09-12T00:38:45;52.30;;;26.42;;
60205;SDS011;46072;51.554;6.846;2023-09-12T00:41:12;52.78;;;27.48;;
60205;SDS011;46072;51.554;6.846;2023-09-12T00:43:38;55.38;;;28.40;;
60205;SDS011;46072;51.554;6.846;2023-09-12T00:46:04;57.95;;;28.27;;
60205;SDS011;46072;51.554;6.846;2023-09-12T00:48:31;56.17;;;28.48;;
60205;SDS011;46072;51.554;6.846;2023-09-12T00:50:58;55.20;;;28.88;;
60205;SDS011;46072;51.554;6.846;2023-09-12T00:53:24;51.47;;;27.48;;
60205;SDS011;46072;51.554;6.846;2023-09-12T00:55:51;59.85;;;29.88;;
60205;SDS011;46072;51.554;6.846;2023-09-12T00:58:20;61.10;;;29.88;;
60205;SDS011;46072;51.554;6.846;2023-09-12T01:00:46;56.58;;;29.95;;
60205;SDS011;46072;51.554;6.846;2023-09-12T01:03:13;59.00;;;28.83;;
60205;SDS011;46072;51.554;6.846;2023-09-12T01:05:41;63.17;;;29.83;;
60205;SDS011;46072;51.554;6.846;2023-09-12T01:08:08;61.90;;;31.02;;
60205;SDS011;46072;51.554;6.846;2023-09-12T01:10:34;62.75;;;31.80;;
60205;SDS011;46072;51.554;6.846;2023-09-12T01:13:01;69.93;;;31.95;;
60205;SDS011;46072;51.554;6.846;2023-09-12T01:15:27;79.28;;;32.17;;
60205;SDS011;46072;51.554;6.846;2023-09-12T01:17:54;72.68;;;31.73;;
60205;SDS011;46072;51.554;6.846;2023-09-12T01:20:24;67.15;;;32.90;;
60205;SDS011;46072;51.554;6.846;2023-09-12T01:28:08;76.07;;;31.65;;
60205;SDS011;46072;51.554;6.846;2023-09-12T01:30:35;71.47;;;31.38;;
60205;SDS011;46072;51.554;6.846;2023-09-12T01:33:02;71.68;;;32.60;;
60205;SDS011;46072;51.554;6.846;2023-09-12T01:35:29;74.35;;;32.25;;
60205;SDS011;46072;51.554;6.846;2023-09-12T01:37:56;81.53;;;33.85;;
60205;SDS011;46072;51.554;6.846;2023-09-12T01:40:37;73.25;;;30.67;;
60205;SDS011;46072;51.554;6.846;2023-09-12T01:43:05;69.43;;;32.35;;
60205;SDS011;46072;51.554;6.846;2023-09-12T01:45:32;68.90;;;32.00;;
60205;SDS011;46072;51.554;6.846;2023-09-12T01:47:59;64.28;;;31.23;;
60205;SDS011;46072;51.554;6.846;2023-09-12T01:50:26;71.57;;;31.35;;
60205;SDS011;46072;51.554;6.846;2023-09-12T01:52:53;71.30;;;32.45;;
60205;SDS011;46072;51.554;6.846;2023-09-12T01:55:20;75.65;;;32.60;;
60205;SDS011;46072;51.554;6.846;2023-09-12T01:57:46;89.38;;;33.45;;
60205;SDS011;46072;51.554;6.846;2023-09-12T02:00:13;78.75;;;33.35;;
60205;SDS011;46072;51.554;6.846;2023-09-12T02:02:40;82.10;;;35.05;;
60205;SDS011;46072;51.554;6.846;2023-09-12T02:05:07;79.55;;;33.17;;
60205;SDS011;46072;51.554;6.846;2023-09-12T02:07:37;86.43;;;35.45;;
60205;SDS011;46072;51.554;6.846;2023-09-12T02:10:04;91.95;;;36.10;;
60205;SDS011;46072;51.554;6.846;2023-09-12T02:12:31;89.95;;;36.10;;
60205;SDS011;46072;51.554;6.846;2023-09-12T02:14:57;86.40;;;36.25;;
60205;SDS011;46072;51.554;6.846;2023-09-12T02:20:52;102.07;;;36.17;;
60205;SDS011;46072;51.554;6.846;2023-09-12T02:23:18;99.93;;;37.05;;
60205;SDS011;46072;51.554;6.846;2023-09-12T02:25:44;93.90;;;38.08;;
60205;SDS011;46072;51.554;6.846;2023-09-12T02:28:11;96.40;;;38.03;;
60205;SDS011;46072;51.554;6.846;2023-09-12T02:30:38;95.57;;;38.67;;
60205;SDS011;46072;51.554;6.846;2023-09-12T02:33:05;89.78;;;37.83;;
60205;SDS011;46072;51.554;6.846;2023-09-12T02:35:31;87.35;;;35.38;;
60205;SDS011;46072;51.554;6.846;2023-09-12T02:41:38;45.67;;;18.93;;
60205;SDS011;46072;51.554;6.846;2023-09-12T02:44:04;35.95;;;18.67;;
60205;SDS011;46072;51.554;6.846;2023-09-12T02:46:31;33.88;;;18.48;;
60205;SDS011;46072;51.554;6.846;2023-09-12T02:48:57;49.42;;;22.48;;
60205;SDS011;46072;51.554;6.846;2023-09-12T02:51:25;62.08;;;27.65;;
60205;SDS011;46072;51.554;6.846;2023-09-12T02:53:51;46.28;;;23.15;;
60205;SDS011;46072;51.554;6.846;2023-09-12T02:56:18;59.08;;;25.77;;
60205;SDS011;46072;51.554;6.846;2023-09-12T02:58:47;55.97;;;26.70;;
60205;SDS011;46072;51.554;6.846;2023-09-12T03:01:14;54.10;;;26.55;;
60205;SDS011;46072;51.554;6.846;2023-09-12T03:03:41;55.63;;;27.33;;
60205;SDS011;46072;51.554;6.846;2023-09-12T03:06:07;46.55;;;24.83;;
60205;SDS011;46072;51.554;6.846;2023-09-12T03:08:34;42.25;;;23.77;;
60205;SDS011;46072;51.554;6.846;2023-09-12T03:11:00;42.40;;;22.98;;
60205;SDS011;46072;51.554;6.846;2023-09-12T03:13:29;43.13;;;24.17;;
60205;SDS011;46072;51.554;6.846;2023-09-12T03:15:55;52.25;;;26.48;;
60205;SDS011;46072;51.554;6.846;2023-09-12T03:18:22;59.78;;;29.58;;
60205;SDS011;46072;51.554;6.846;2023-09-12T03:20:48;61.20;;;28.70;;
60205;SDS011;46072;51.554;6.846;2023-09-12T03:23:15;57.70;;;28.35;;
60205;SDS011;46072;51.554;6.846;2023-09-12T03:25:42;61.60;;;30.63;;
60205;SDS011;46072;51.554;6.846;2023-09-12T03:28:08;80.57;;;31.75;;
60205;SDS011;46072;51.554;6.846;2023-09-12T03:30:35;88.00;;;35.22;;
60205;SDS011;46072;51.554;6.846;2023-09-12T03:33:03;84.95;;;36.58;;
60205;SDS011;46072;51.554;6.846;2023-09-12T03:35:30;101.60;;;38.40;;
60205;SDS011;46072;51.554;6.846;2023-09-12T03:37:58;97.25;;;38.60;;
60205;SDS011;46072;51.554;6.846;2023-09-12T03:40:27;89.32;;;37.15;;
60205;SDS011;46072;51.554;6.846;2023-09-12T03:42:54;99.90;;;40.58;;
60205;SDS011;46072;51.554;6.846;2023-09-12T03:45:21;102.93;;;41.60;;
60205;SDS011;46072;51.554;6.846;2023-09-12T03:47:47;124.63;;;44.50;;
60205;SDS011;46072;51.554;6.846;2023-09-12T03:50:14;136.00;;;45.60;;
60205;SDS011;46072;51.554;6.846;2023-09-12T03:52:40;134.98;;;47.00;;
60205;SDS011;46072;51.554;6.846;2023-09-12T03:55:07;143.10;;;45.90;;
60205;SDS011;46072;51.554;6.846;2023-09-12T03:57:33;140.07;;;46.88;;
60205;SDS011;46072;51.554;6.846;2023-09-12T04:00:00;164.00;;;48.53;;
60205;SDS011;46072;51.554;6.846;2023-09-12T04:02:26;133.95;;;47.50;;
60205;SDS011;46072;51.554;6.846;2023-09-12T04:04:53;179.18;;;50.38;;
60205;SDS011;46072;51.554;6.846;2023-09-12T04:07:23;160.60;;;52.10;;
60205;SDS011;46072;51.554;6.846;2023-09-12T04:09:49;155.60;;;50.28;;
60205;SDS011;46072;51.554;6.846;2023-09-12T04:12:15;151.98;;;48.97;;
60205;SDS011;46072;51.554;6.846;2023-09-12T04:14:42;135.02;;;46.03;;
60205;SDS011;46072;51.554;6.846;2023-09-12T04:17:08;143.88;;;49.30;;
60205;SDS011;46072;51.554;6.846;2023-09-12T04:19:35;162.07;;;49.40;;
60205;SDS011;46072;51.554;6.846;2023-09-12T04:22:01;152.02;;;47.67;;
60205;SDS011;46072;51.554;6.846;2023-09-12T04:24:29;167.18;;;52.20;;
60205;SDS011;46072;51.554;6.846;2023-09-12T04:26:59;162.15;;;49.55;;
60205;SDS011;46072;51.554;6.846;2023-09-12T04:29:25;149.60;;;45.92;;
60205;SDS011;46072;51.554;6.846;2023-09-12T04:31:56;158.35;;;48.85;;
60205;SDS011;46072;51.554;6.846;2023-09-12T04:34:25;136.00;;;46.25;;
60205;SDS011;46072;51.554;6.846;2023-09-12T04:36:52;169.73;;;50.15;;
60205;SDS011;46072;51.554;6.846;2023-09-12T04:39:19;172.25;;;49.42;;
60205;SDS011;46072;51.554;6.846;2023-09-12T04:41:47;138.25;;;46.55;;
60205;SDS011;46072;51.554;6.846;2023-09-12T04:44:16;175.05;;;49.40;;
60205;SDS011;46072;51.554;6.846;2023-09-12T04:46:43;178.65;;;48.95;;
60205;SDS011;46072;51.554;6.846;2023-09-12T04:49:15;158.85;;;44.67;;
60205;SDS011;46072;51.554;6.846;2023-09-12T04:51:42;155.55;;;48.22;;
60205;SDS011;46072;51.554;6.846;2023-09-12T04:54:11;134.05;;;45.05;;
60205;SDS011;46072;51.554;6.846;2023-09-12T04:56:38;164.75;;;46.67;;
60205;SDS011;46072;51.554;6.846;2023-09-12T04:59:07;169.38;;;48.22;;
60205;SDS011;46072;51.554;6.846;2023-09-12T05:01:33;180.48;;;48.00;;
60205;SDS011;46072;51.554;6.846;2023-09-12T05:04:00;182.85;;;48.70;;
60205;SDS011;46072;51.554;6.846;2023-09-12T05:06:27;151.93;;;45.17;;
60205;SDS011;46072;51.554;6.846;2023-09-12T05:08:53;126.22;;;41.10;;
60205;SDS011;46072;51.554;6.846;2023-09-12T05:11:21;145.18;;;42.15;;
60205;SDS011;46072;51.554;6.846;2023-09-12T05:13:48;112.90;;;37.97;;
60205;SDS011;46072;51.554;6.846;2023-09-12T05:16:17;117.93;;;36.75;;
60205;SDS011;46072;51.554;6.846;2023-09-12T05:18:44;101.07;;;36.65;;
60205;SDS011;46072;51.554;6.846;2023-09-12T05:21:11;107.90;;;37.20;;
60205;SDS011;46072;51.554;6.846;2023-09-12T05:23:37;124.72;;;39.00;;
60205;SDS011;46072;51.554;6.846;2023-09-12T05:26:04;100.50;;;36.85;;
60205;SDS011;46072;51.554;6.846;2023-09-12T05:28:30;108.43;;;36.90;;
60205;SDS011;46072;51.554;6.846;2023-09-12T05:30:56;125.75;;;40.88;;
60205;SDS011;46072;51.554;6.846;2023-09-12T05:33:23;115.57;;;39.60;;
60205;SDS011;46072;51.554;6.846;2023-09-12T05:35:49;101.43;;;37.25;;
60205;SDS011;46072;51.554;6.846;2023-09-12T05:38:16;112.20;;;40.10;;
60205;SDS011;46072;51.554;6.846;2023-09-12T05:40:42;117.65;;;38.78;;
60205;SDS011;46072;51.554;6.846;2023-09-12T05:43:09;102.70;;;38.80;;
60205;SDS011;46072;51.554;6.846;2023-09-12T05:45:35;93.15;;;36.67;;
60205;SDS011;46072;51.554;6.846;2023-09-12T05:48:02;103.57;;;37.90;;
60205;SDS011;46072;51.554;6.846;2023-09-12T05:50:29;108.07;;;39.50;;
60205;SDS011;46072;51.554;6.846;2023-09-12T05:52:56;108.38;;;40.10;;
60205;SDS011;46072;51.554;6.846;2023-09-12T05:55:22;105.20;;;39.50;;
60205;SDS011;46072;51.554;6.846;2023-09-12T05:57:50;101.28;;;40.72;;
60205;SDS011;46072;51.554;6.846;2023-09-12T06:00:20;95.55;;;37.67;;
60205;SDS011;46072;51.554;6.846;2023-09-12T06:02:47;114.95;;;40.22;;
60205;SDS011;46072;51.554;6.846;2023-09-12T06:05:14;105.47;;;38.67;;
60205;SDS011;46072;51.554;6.846;2023-09-12T06:07:41;100.68;;;38.00;;
60205;SDS011;46072;51.554;6.846;2023-09-12T06:10:08;123.65;;;39.03;;
60205;SDS011;46072;51.554;6.846;2023-09-12T06:12:34;113.00;;;39.33;;
60205;SDS011;46072;51.554;6.846;2023-09-12T06:15:03;108.43;;;41.90;;
60205;SDS011;46072;51.554;6.846;2023-09-12T06:17:31;110.88;;;40.78;;
60205;SDS011;46072;51.554;6.846;2023-09-12T06:19:57;108.10;;;40.63;;
60205;SDS011;46072;51.554;6.846;2023-09-12T06:22:24;109.78;;;41.92;;
60205;SDS011;46072;51.554;6.846;2023-09-12T06:24:50;113.75;;;42.20;;
60205;SDS011;46072;51.554;6.846;2023-09-12T06:27:17;107.20;;;39.28;;
60205;SDS011;46072;51.554;6.846;2023-09-12T06:29:45;98.72;;;39.53;;
60205;SDS011;46072;51.554;6.846;2023-09-12T06:32:14;105.05;;;37.78;;
60205;SDS011;46072;51.554;6.846;2023-09-12T06:34:41;85.03;;;34.20;;
60205;SDS011;46072;51.554;6.846;2023-09-12T06:37:08;93.43;;;37.58;;
60205;SDS011;46072;51.554;6.846;2023-09-12T06:39:34;96.22;;;38.20;;
60205;SDS011;46072;51.554;6.846;2023-09-12T06:42:01;91.50;;;37.70;;
60205;SDS011;46072;51.554;6.846;2023-09-12T06:44:28;102.53;;;37.83;;
60205;SDS011;46072;51.554;6.846;2023-09-12T06:46:54;100.10;;;37.47;;
60205;SDS011;46072;51.554;6.846;2023-09-12T06:49:21;109.97;;;39.03;;
60205;SDS011;46072;51.554;6.846;2023-09-12T06:51:47;101.20;;;37.35;;
60205;SDS011;46072;51.554;6.846;2023-09-12T06:54:16;100.68;;;38.95;;
60205;SDS011;46072;51.554;6.846;2023-09-12T06:56:43;106.97;;;37.20;;
60205;SDS011;46072;51.554;6.846;2023-09-12T06:59:09;106.22;;;38.10;;
60205;SDS011;46072;51.554;6.846;2023-09-12T07:01:35;98.80;;;36.53;;
60205;SDS011;46072;51.554;6.846;2023-09-12T07:04:03;95.50;;;37.83;;
60205;SDS011;46072;51.554;6.846;2023-09-12T07:06:30;93.22;;;35.63;;
60205;SDS011;46072;51.554;6.846;2023-09-12T07:08:56;82.20;;;35.03;;
60205;SDS011;46072;51.554;6.846;2023-09-12T07:11:23;95.07;;;36.95;;
60205;SDS011;46072;51.554;6.846;2023-09-12T07:13:50;98.57;;;36.45;;
60205;SDS011;46072;51.554;6.846;2023-09-12T07:16:18;106.97;;;39.05;;
60205;SDS011;46072;51.554;6.846;2023-09-12T07:18:47;93.60;;;38.45;;
60205;SDS011;46072;51.554;6.846;2023-09-12T07:21:14;103.95;;;39.33;;
60205;SDS011;46072;51.554;6.846;2023-09-12T07:23:40;108.47;;;39.80;;
60205;SDS011;46072;51.554;6.846;2023-09-12T07:26:11;113.68;;;39.17;;
60205;SDS011;46072;51.554;6.846;2023-09-12T07:28:37;108.10;;;39.53;;
60205;SDS011;46072;51.554;6.846;2023-09-12T07:31:04;126.07;;;42.35;;
60205;SDS011;46072;51.554;6.846;2023-09-12T07:33:30;118.63;;;42.42;;
60205;SDS011;46072;51.554;6.846;2023-09-12T07:36:00;123.75;;;41.72;;
60205;SDS011;46072;51.554;6.846;2023-09-12T07:38:29;136.73;;;44.03;;
60205;SDS011;46072;51.554;6.846;2023-09-12T07:40:57;130.45;;;42.95;;
60205;SDS011;46072;51.554;6.846;2023-09-12T07:43:24;153.88;;;47.45;;
60205;SDS011;46072;51.554;6.846;2023-09-12T07:45:54;129.90;;;44.60;;
60205;SDS011;46072;51.554;6.846;2023-09-12T07:48:21;127.43;;;42.10;;
60205;SDS011;46072;51.554;6.846;2023-09-12T07:50:47;126.18;;;42.95;;
60205;SDS011;46072;51.554;6.846;2023-09-12T07:53:14;121.40;;;42.78;;
60205;SDS011;46072;51.554;6.846;2023-09-12T07:55:41;118.07;;;43.97;;
60205;SDS011;46072;51.554;6.846;2023-09-12T07:58:12;118.88;;;42.45;;
60205;SDS011;46072;51.554;6.846;2023-09-12T08:00:39;128.88;;;44.58;;
60205;SDS011;46072;51.554;6.846;2023-09-12T08:03:05;120.82;;;40.47;;
60205;SDS011;46072;51.554;6.846;2023-09-12T08:05:32;107.10;;;41.50;;
60205;SDS011;46072;51.554;6.846;2023-09-12T08:07:58;91.00;;;38.10;;
60205;SDS011;46072;51.554;6.846;2023-09-12T08:10:25;86.22;;;37.30;;
60205;SDS011;46072;51.554;6.846;2023-09-12T08:12:51;79.03;;;36.35;;
60205;SDS011;46072;51.554;6.846;2023-09-12T08:15:17;73.50;;;35.53;;
60205;SDS011;46072;51.554;6.846;2023-09-12T08:17:44;74.03;;;35.35;;
60205;SDS011;46072;51.554;6.846;2023-09-12T08:20:11;71.70;;;33.65;;
60205;SDS011;46072;51.554;6.846;2023-09-12T08:22:37;80.90;;;35.55;;
60205;SDS011;46072;51.554;6.846;2023-09-12T08:25:05;91.25;;;37.17;;
60205;SDS011;46072;51.554;6.846;2023-09-12T08:27:32;89.38;;;38.28;;
60205;SDS011;46072;51.554;6.846;2023-09-12T08:29:58;84.03;;;35.83;;
60205;SDS011;46072;51.554;6.846;2023-09-12T08:32:25;90.97;;;38.08;;
60205;SDS011;46072;51.554;6.846;2023-09-12T08:34:51;81.50;;;38.05;;
60205;SDS011;46072;51.554;6.846;2023-09-12T08:37:18;86.13;;;36.95;;
60205;SDS011;46072;51.554;6.846;2023-09-12T08:39:44;77.22;;;35.58;;
60205;SDS011;46072;51.554;6.846;2023-09-12T08:42:13;83.25;;;37.92;;
60205;SDS011;46072;51.554;6.846;2023-09-12T08:44:43;74.10;;;34.55;;
60205;SDS011;46072;51.554;6.846;2023-09-12T08:47:09;66.85;;;34.20;;
60205;SDS011;46072;51.554;6.846;2023-09-12T08:49:37;70.95;;;34.20;;
60205;SDS011;46072;51.554;6.846;2023-09-12T08:52:04;70.47;;;35.33;;
60205;SDS011;46072;51.554;6.846;2023-09-12T08:54:31;73.10;;;36.33;;
60205;SDS011;46072;51.554;6.846;2023-09-12T08:56:57;67.43;;;33.92;;
60205;SDS011;46072;51.554;6.846;2023-09-12T08:59:24;83.03;;;36.28;;
60205;SDS011;46072;51.554;6.846;2023-09-12T09:01:51;72.72;;;37.55;;
60205;SDS011;46072;51.554;6.846;2023-09-12T09:04:18;66.63;;;35.17;;
60205;SDS011;46072;51.554;6.846;2023-09-12T09:06:45;62.60;;;33.90;;
60205;SDS011;46072;51.554;6.846;2023-09-12T09:09:12;70.20;;;35.80;;
60205;SDS011;46072;51.554;6.846;2023-09-12T09:11:39;58.63;;;33.15;;
60205;SDS011;46072;51.554;6.846;2023-09-12T09:14:06;60.40;;;33.60;;
60205;SDS011;46072;51.554;6.846;2023-09-12T09:16:32;50.28;;;28.38;;
60205;SDS011;46072;51.554;6.846;2023-09-12T09:19:00;39.28;;;23.10;;
60205;SDS011;46072;51.554;6.846;2023-09-12T09:21:28;42.63;;;25.25;;
60205;SDS011;46072;51.554;6.846;2023-09-12T09:24:00;34.20;;;21.45;;
60205;SDS011;46072;51.554;6.846;2023-09-12T09:26:40;26.90;;;16.52;;
60205;SDS011;46072;51.554;6.846;2023-09-12T09:29:08;28.77;;;15.93;;
60205;SDS011;46072;51.554;6.846;2023-09-12T09:31:35;31.33;;;19.20;;
60205;SDS011;46072;51.554;6.846;2023-09-12T09:34:01;28.38;;;17.88;;
60205;SDS011;46072;51.554;6.846;2023-09-12T09:36:27;27.73;;;18.17;;
60205;SDS011;46072;51.554;6.846;2023-09-12T09:38:54;29.08;;;16.17;;
60205;SDS011;46072;51.554;6.846;2023-09-12T09:41:23;31.08;;;15.85;;
60205;SDS011;46072;51.554;6.846;2023-09-12T09:43:50;23.50;;;14.85;;
60205;SDS011;46072;51.554;6.846;2023-09-12T09:46:17;24.20;;;14.52;;
60205;SDS011;46072;51.554;6.846;2023-09-12T09:48:50;19.30;;;12.48;;
60205;SDS011;46072;51.554;6.846;2023-09-12T09:51:17;14.80;;;9.23;;
60205;SDS011;46072;51.554;6.846;2023-09-12T09:53:43;16.55;;;10.48;;
60205;SDS011;46072;51.554;6.846;2023-09-12T09:56:11;16.25;;;10.38;;
60205;SDS011;46072;51.554;6.846;2023-09-12T09:58:56;17.77;;;9.85;;
60205;SDS011;46072;51.554;6.846;2023-09-12T10:01:29;13.70;;;8.55;;
60205;SDS011;46072;51.554;6.846;2023-09-12T10:03:57;12.98;;;7.65;;
60205;SDS011;46072;51.554;6.846;2023-09-12T10:06:24;15.05;;;7.65;;
60205;SDS011;46072;51.554;6.846;2023-09-12T10:08:52;15.25;;;8.13;;
60205;SDS011;46072;51.554;6.846;2023-09-12T10:11:20;11.30;;;7.47;;
60205;SDS011;46072;51.554;6.846;2023-09-12T10:13:55;15.88;;;6.90;;
60205;SDS011;46072;51.554;6.846;2023-09-12T10:16:32;13.98;;;6.65;;
60205;SDS011;46072;51.554;6.846;2023-09-12T10:19:04;12.52;;;6.53;;
60205;SDS011;46072;51.554;6.846;2023-09-12T10:21:30;12.63;;;6.85;;
60205;SDS011;46072;51.554;6.846;2023-09-12T10:23:58;10.80;;;6.82;;
60205;SDS011;46072;51.554;6.846;2023-09-12T10:26:24;11.13;;;7.20;;
60205;SDS011;46072;51.554;6.846;2023-09-12T10:28:51;10.82;;;7.38;;
60205;SDS011;46072;51.554;6.846;2023-09-12T10:31:18;12.32;;;6.75;;
60205;SDS011;46072;51.554;6.846;2023-09-12T10:33:45;11.77;;;6.93;;
60205;SDS011;46072;51.554;6.846;2023-09-12T10:36:13;11.25;;;6.57;;
60205;SDS011;46072;51.554;6.846;2023-09-12T10:38:41;10.77;;;6.20;;
60205;SDS011;46072;51.554;6.846;2023-09-12T10:41:12;10.10;;;6.00;;
60205;SDS011;46072;51.554;6.846;2023-09-12T10:43:42;12.95;;;6.30;;
60205;SDS011;46072;51.554;6.846;2023-09-12T10:46:09;10.07;;;6.18;;
60205;SDS011;46072;51.554;6.846;2023-09-12T10:48:36;11.18;;;5.93;;
60205;SDS011;46072;51.554;6.846;2023-09-12T10:51:03;11.07;;;7.00;;
60205;SDS011;46072;51.554;6.846;2023-09-12T10:53:32;11.68;;;6.82;;
60205;SDS011;46072;51.554;6.846;2023-09-12T10:56:16;11.17;;;6.60;;
60205;SDS011;46072;51.554;6.846;2023-09-12T11:01:30;10.75;;;6.10;;
60205;SDS011;46072;51.554;6.846;2023-09-12T11:03:57;11.90;;;6.30;;
60205;SDS011;46072;51.554;6.846;2023-09-12T11:06:30;12.18;;;6.47;;
60205;SDS011;46072;51.554;6.846;2023-09-12T11:11:43;12.70;;;6.15;;
60205;SDS011;46072;51.554;6.846;2023-09-12T11:14:10;8.60;;;6.10;;
60205;SDS011;46072;51.554;6.846;2023-09-12T11:16:36;10.18;;;6.47;;
60205;SDS011;46072;51.554;6.846;2023-09-12T11:21:46;11.32;;;6.60;;
60205;SDS011;46072;51.554;6.846;2023-09-12T11:24:13;10.25;;;6.70;;
60205;SDS011;46072;51.554;6.846;2023-09-12T11:26:52;12.25;;;7.38;;
60205;SDS011;46072;51.554;6.846;2023-09-12T11:29:20;11.63;;;7.20;;
60205;SDS011;46072;51.554;6.846;2023-09-12T11:31:59;11.85;;;7.65;;
60205;SDS011;46072;51.554;6.846;2023-09-12T11:34:26;10.35;;;7.13;;
60205;SDS011;46072;51.554;6.846;2023-09-12T11:36:57;12.13;;;7.30;;
60205;SDS011;46072;51.554;6.846;2023-09-12T11:39:30;10.50;;;7.72;;
60205;SDS011;46072;51.554;6.846;2023-09-12T11:41:58;12.02;;;7.70;;
60205;SDS011;46072;51.554;6.846;2023-09-12T11:44:25;12.35;;;8.35;;
60205;SDS011;46072;51.554;6.846;2023-09-12T11:46:53;12.98;;;8.48;;
60205;SDS011;46072;51.554;6.846;2023-09-12T11:49:19;11.07;;;7.57;;
60205;SDS011;46072;51.554;6.846;2023-09-12T11:51:49;10.95;;;7.10;;
60205;SDS011;46072;51.554;6.846;2023-09-12T11:56:42;11.55;;;7.40;;
60205;SDS011;46072;51.554;6.846;2023-09-12T11:59:09;10.10;;;6.95;;
60205;SDS011;46072;51.554;6.846;2023-09-12T12:04:06;13.02;;;6.75;;
60205;SDS011;46072;51.554;6.846;2023-09-12T12:06:33;10.85;;;6.70;;
60205;SDS011;46072;51.554;6.846;2023-09-12T12:09:01;11.13;;;6.03;;
60205;SDS011;46072;51.554;6.846;2023-09-12T12:11:28;9.75;;;6.43;;
60205;SDS011;46072;51.554;6.846;2023-09-12T12:13:54;10.45;;;6.38;;
60205;SDS011;46072;51.554;6.846;2023-09-12T12:16:20;9.93;;;6.43;;
60205;SDS011;46072;51.554;6.846;2023-09-12T12:18:49;10.35;;;6.65;;
60205;SDS011;46072;51.554;6.846;2023-09-12T12:21:20;16.00;;;7.38;;
60205;SDS011;46072;51.554;6.846;2023-09-12T12:23:47;10.52;;;6.10;;
60205;SDS011;46072;51.554;6.846;2023-09-12T12:26:24;11.50;;;7.07;;
60205;SDS011;46072;51.554;6.846;2023-09-12T12:28:50;11.52;;;6.18;;
60205;SDS011;46072;51.554;6.846;2023-09-12T12:31:16;9.50;;;6.40;;
60205;SDS011;46072;51.554;6.846;2023-09-12T12:33:49;10.80;;;6.45;;
60205;SDS011;46072;51.554;6.846;2023-09-12T12:36:42;11.55;;;7.50;;
60205;SDS011;46072;51.554;6.846;2023-09-12T12:39:20;9.75;;;6.70;;
60205;SDS011;46072;51.554;6.846;2023-09-12T12:41:47;9.00;;;5.88;;
60205;SDS011;46072;51.554;6.846;2023-09-12T12:46:51;10.18;;;6.93;;
60205;SDS011;46072;51.554;6.846;2023-09-12T12:49:19;13.05;;;7.65;;
60205;SDS011;46072;51.554;6.846;2023-09-12T12:51:45;13.60;;;7.40;;
60205;SDS011;46072;51.554;6.846;2023-09-12T12:54:13;12.38;;;6.97;;
60205;SDS011;46072;51.554;6.846;2023-09-12T12:56:40;10.63;;;6.50;;
60205;SDS011;46072;51.554;6.846;2023-09-12T12:59:07;13.32;;;6.60;;
60205;SDS011;46072;51.554;6.846;2023-09-12T13:01:35;10.98;;;6.78;;
60205;SDS011;46072;51.554;6.846;2023-09-12T13:04:04;10.57;;;6.40;;
60205;SDS011;46072;51.554;6.846;2023-09-12T13:06:30;11.07;;;6.45;;
60205;SDS011;46072;51.554;6.846;2023-09-12T13:09:02;13.77;;;6.65;;
60205;SDS011;46072;51.554;6.846;2023-09-12T13:11:32;11.05;;;6.57;;
60205;SDS011;46072;51.554;6.846;2023-09-12T13:14:02;13.68;;;6.72;;
60205;SDS011;46072;51.554;6.846;2023-09-12T13:16:35;12.48;;;6.55;;
60205;SDS011;46072;51.554;6.846;2023-09-12T13:19:01;10.57;;;6.40;;
60205;SDS011;46072;51.554;6.846;2023-09-12T13:21:27;11.75;;;6.15;;
60205;SDS011;46072;51.554;6.846;2023-09-12T13:23:54;14.30;;;6.15;;
60205;SDS011;46072;51.554;6.846;2023-09-12T13:26:20;10.18;;;6.28;;
60205;SDS011;46072;51.554;6.846;2023-09-12T13:28:47;10.70;;;6.40;;
60205;SDS011;46072;51.554;6.846;2023-09-12T13:31:13;12.82;;;6.65;;
60205;SDS011;46072;51.554;6.846;2023-09-12T13:33:39;11.23;;;6.70;;
60205;SDS011;46072;51.554;6.846;2023-09-12T13:36:08;9.75;;;6.43;;
60205;SDS011;46072;51.554;6.846;2023-09-12T13:38:35;11.68;;;6.60;;
60205;SDS011;46072;51.554;6.846;2023-09-12T13:41:01;8.82;;;6.00;;
60205;SDS011;46072;51.554;6.846;2023-09-12T13:43:28;8.80;;;6.15;;
60205;SDS011;46072;51.554;6.846;2023-09-12T13:45:55;12.63;;;6.57;;
60205;SDS011;46072;51.554;6.846;2023-09-12T13:48:21;11.25;;;6.63;;
60205;SDS011;46072;51.554;6.846;2023-09-12T13:50:49;11.15;;;6.60;;
60205;SDS011;46072;51.554;6.846;2023-09-12T13:53:15;9.35;;;6.45;;
60205;SDS011;46072;51.554;6.846;2023-09-12T13:55:42;9.70;;;6.20;;
60205;SDS011;46072;51.554;6.846;2023-09-12T13:58:08;8.88;;;5.88;;
60205;SDS011;46072;51.554;6.846;2023-09-12T14:00:34;9.02;;;5.47;;
60205;SDS011;46072;51.554;6.846;2023-09-12T14:03:05;8.63;;;5.68;;
60205;SDS011;46072;51.554;6.846;2023-09-12T14:05:32;7.93;;;5.25;;
60205;SDS011;46072;51.554;6.846;2023-09-12T14:07:59;9.23;;;5.70;;
60205;SDS011;46072;51.554;6.846;2023-09-12T14:10:26;9.60;;;5.60;;
60205;SDS011;46072;51.554;6.846;2023-09-12T14:13:02;13.27;;;5.70;;
60205;SDS011;46072;51.554;6.846;2023-09-12T14:15:46;11.82;;;6.30;;
60205;SDS011;46072;51.554;6.846;2023-09-12T14:18:13;9.55;;;5.78;;
60205;SDS011;46072;51.554;6.846;2023-09-12T14:20:39;9.43;;;5.57;;
60205;SDS011;46072;51.554;6.846;2023-09-12T14:23:06;10.05;;;5.45;;
60205;SDS011;46072;51.554;6.846;2023-09-12T14:25:32;9.95;;;5.63;;
60205;SDS011;46072;51.554;6.846;2023-09-12T14:27:59;9.77;;;5.68;;
60205;SDS011;46072;51.554;6.846;2023-09-12T14:30:26;9.70;;;5.88;;
60205;SDS011;46072;51.554;6.846;2023-09-12T14:33:00;11.00;;;5.88;;
60205;SDS011;46072;51.554;6.846;2023-09-12T14:35:27;11.90;;;6.18;;
60205;SDS011;46072;51.554;6.846;2023-09-12T14:37:53;9.18;;;5.85;;
60205;SDS011;46072;51.554;6.846;2023-09-12T14:40:20;10.05;;;5.53;;
60205;SDS011;46072;51.554;6.846;2023-09-12T14:42:46;10.20;;;5.90;;
60205;SDS011;46072;51.554;6.846;2023-09-12T14:45:13;10.20;;;5.78;;
60205;SDS011;46072;51.554;6.846;2023-09-12T14:47:40;10.07;;;5.72;;
60205;SDS011;46072;51.554;6.846;2023-09-12T14:50:06;12.30;;;5.65;;
60205;SDS011;46072;51.554;6.846;2023-09-12T14:52:33;10.45;;;5.78;;
60205;SDS011;46072;51.554;6.846;2023-09-12T14:55:00;9.05;;;5.70;;